createdAt,value
2022-09-20T00:00:48.174Z,95466.78
2022-09-20T00:03:17.734Z,95466.69
2022-09-20T00:08:37.150Z,95468.16
2022-09-20T00:11:08.178Z,95464.31
2022-09-20T00:13:37.431Z,95457.41
2022-09-20T00:16:17.059Z,95468.13
2022-09-20T00:18:50.068Z,95471.84
2022-09-20T00:21:19.330Z,95463.06
2022-09-20T00:23:46.038Z,95462.84
2022-09-20T00:26:13.203Z,95464.84
2022-09-20T00:28:40.923Z,95461.16
2022-09-20T00:31:51.412Z,95464.03
2022-09-20T00:34:24.073Z,95463.50
2022-09-20T00:36:56.102Z,95459.38
2022-09-20T00:39:22.750Z,95462.47
2022-09-20T00:41:49.558Z,95465.13
2022-09-20T00:44:47.832Z,95459.41
2022-09-20T00:47:59.162Z,95455.16
2022-09-20T00:50:47.375Z,95458.63
2022-09-20T00:53:17.013Z,95463.78
2022-09-20T00:55:57.147Z,95470.66
2022-09-20T00:58:30.830Z,95456.06
2022-09-20T01:00:57.893Z,95463.38
2022-09-20T01:03:47.992Z,95467.88
2022-09-20T01:06:17.027Z,95457.69
2022-09-20T01:08:50.641Z,95470.75
2022-09-20T01:11:17.650Z,95458.59
2022-09-20T01:13:44.226Z,95463.78
2022-09-20T01:16:15.253Z,95461.00
2022-09-20T01:18:44.815Z,95459.00
2022-09-20T01:21:13.483Z,95463.47
2022-09-20T01:23:51.793Z,95459.00
2022-09-20T01:26:39.711Z,95461.00
2022-09-20T01:29:21.255Z,95452.44
2022-09-20T01:31:56.507Z,95467.34
2022-09-20T01:34:39.623Z,95461.63
2022-09-20T01:37:16.766Z,95455.16
2022-09-20T01:40:04.100Z,95457.16
2022-09-20T01:42:36.259Z,95456.16
2022-09-20T01:45:14.696Z,95450.44
2022-09-20T01:48:05.397Z,95441.31
2022-09-20T01:51:02.406Z,95448.25
2022-09-20T01:54:05.250Z,95445.84
2022-09-20T01:56:59.735Z,95452.16
2022-09-20T01:59:58.218Z,95452.94
2022-09-20T02:02:40.340Z,95449.50
2022-09-20T02:05:40.724Z,95450.09
2022-09-20T02:08:28.670Z,95460.13
2022-09-20T02:11:10.526Z,95457.91
2022-09-20T02:13:40.240Z,95453.88
2022-09-20T02:16:34.839Z,95464.00
2022-09-20T02:19:21.346Z,95455.34
2022-09-20T02:22:09.706Z,95457.72
2022-09-20T02:24:58.076Z,95465.56
2022-09-20T02:27:45.698Z,95460.94
2022-09-20T02:30:44.078Z,95464.56
2022-09-20T02:36:06.104Z,95462.16
2022-09-20T02:38:32.849Z,95467.50
2022-09-20T02:41:24.050Z,95466.50
2022-09-20T02:44:16.034Z,95461.19
2022-09-20T02:46:53.640Z,95462.69
2022-09-20T02:49:43.119Z,95458.59
2022-09-20T02:52:22.442Z,95469.63
2022-09-20T02:55:02.346Z,95460.06
2022-09-20T02:57:44.511Z,95467.34
2022-09-20T03:00:18.319Z,95466.19
2022-09-20T03:02:52.713Z,95461.81
2022-09-20T03:05:30.542Z,95469.50
2022-09-20T03:08:26.868Z,95462.47
2022-09-20T03:11:03.207Z,95471.34
2022-09-20T03:13:55.967Z,95468.59
2022-09-20T03:16:28.607Z,95471.09
2022-09-20T03:19:18.860Z,95475.63
2022-09-20T03:21:54.600Z,95473.44
2022-09-20T03:24:39.569Z,95480.66
2022-09-20T03:27:42.779Z,95482.94
2022-09-20T03:30:57.383Z,95480.97
2022-09-20T03:33:56.261Z,95473.75
2022-09-20T03:36:59.084Z,95477.50
2022-09-20T03:39:47.284Z,95474.44
2022-09-20T03:42:48.544Z,95473.06
2022-09-20T03:45:47.499Z,95474.91
2022-09-20T03:49:04.679Z,95470.94
2022-09-20T03:51:46.287Z,95474.16
2022-09-20T03:54:48.743Z,95476.53
2022-09-20T03:57:27.287Z,95473.69
2022-09-20T04:00:06.112Z,95475.94
2022-09-20T04:03:11.606Z,95474.31
2022-09-20T04:05:44.099Z,95478.22
2022-09-20T04:08:28.727Z,95477.63
2022-09-20T04:11:29.428Z,95476.19
2022-09-20T04:14:26.674Z,95467.25
2022-09-20T04:17:06.313Z,95474.59
2022-09-20T04:20:11.260Z,95470.53
2022-09-20T04:22:43.229Z,95468.28
2022-09-20T04:25:16.013Z,95477.81
2022-09-20T04:27:52.533Z,95485.13
2022-09-20T04:30:24.714Z,95482.91
2022-09-20T04:33:02.259Z,95486.94
2022-09-20T04:36:09.884Z,95480.06
2022-09-20T04:38:36.941Z,95478.44
2022-09-20T04:41:12.732Z,95477.41
2022-09-20T04:44:00.860Z,95484.31
2022-09-20T04:46:45.612Z,95488.34
2022-09-20T04:49:24.246Z,95487.53
2022-09-20T04:52:28.031Z,95497.50
2022-09-20T04:55:42.362Z,95492.63
2022-09-20T04:58:30.760Z,95492.59
2022-09-20T05:01:12.610Z,95494.06
2022-09-20T05:04:10.422Z,95488.97
2022-09-20T05:07:09.500Z,95484.09
2022-09-20T05:10:00.929Z,95483.88
2022-09-20T05:12:48.705Z,95482.44
2022-09-20T05:15:57.074Z,95491.41
2022-09-20T05:18:41.196Z,95491.56
2022-09-20T05:21:27.094Z,95509.41
2022-09-20T05:24:41.024Z,95507.63
2022-09-20T05:27:07.838Z,95505.00
2022-09-20T05:29:40.588Z,95506.38
2022-09-20T05:32:37.150Z,95509.44
2022-09-20T05:35:54.476Z,95507.63
2022-09-20T05:38:48.916Z,95509.63
2022-09-20T05:41:29.658Z,95518.78
2022-09-20T05:44:29.928Z,95519.19
2022-09-20T05:51:31.670Z,95526.69
2022-09-20T05:54:21.447Z,95526.88
2022-09-20T05:57:06.334Z,95525.00
2022-09-20T06:00:04.262Z,95530.88
2022-09-20T06:02:41.234Z,95530.09
2022-09-20T06:05:47.395Z,95531.91
2022-09-20T06:08:23.128Z,95540.00
2022-09-20T06:11:42.169Z,95549.94
2022-09-20T06:14:28.846Z,95542.88
2022-09-20T06:17:07.858Z,95545.50
2022-09-20T06:19:50.308Z,95556.69
2022-09-20T06:22:30.818Z,95557.31
2022-09-20T06:25:09.606Z,95551.63
2022-09-20T06:27:51.367Z,95556.06
2022-09-20T06:30:30.192Z,95547.91
2022-09-20T06:33:13.723Z,95560.13
2022-09-20T06:35:48.566Z,95553.44
2022-09-20T06:38:27.276Z,95547.72
2022-09-20T06:40:53.916Z,95548.44
2022-09-20T06:43:20.563Z,95557.59
2022-09-20T06:45:47.233Z,95551.22
2022-09-20T06:48:15.011Z,95546.06
2022-09-20T06:50:42.563Z,95548.41
2022-09-20T06:53:15.483Z,95558.84
2022-09-20T06:55:42.692Z,95545.50
2022-09-20T06:58:11.376Z,95548.25
2022-09-20T07:00:38.388Z,95549.13
2022-09-20T07:03:08.149Z,95555.19
2022-09-20T07:05:35.761Z,95555.97
2022-09-20T07:08:20.714Z,95551.34
2022-09-20T07:11:24.639Z,95552.84
2022-09-20T07:13:53.805Z,95547.53
2022-09-20T07:16:21.128Z,95552.88
2022-09-20T07:18:49.095Z,95554.22
2022-09-20T07:21:18.102Z,95544.88
2022-09-20T07:23:45.395Z,95554.16
2022-09-20T07:26:23.353Z,95539.97
2022-09-20T07:28:50.611Z,95541.47
2022-09-20T07:31:19.738Z,95541.41
2022-09-20T07:33:47.255Z,95540.63
2022-09-20T07:36:15.026Z,95549.63
2022-09-20T07:38:42.144Z,95559.34
2022-09-20T07:41:10.156Z,95555.63
2022-09-20T07:43:37.041Z,95563.66
2022-09-20T07:46:03.872Z,95564.13
2022-09-20T07:48:36.065Z,95575.91
2022-09-20T07:51:09.185Z,95567.81
2022-09-20T07:53:36.904Z,95570.28
2022-09-20T07:56:11.215Z,95571.66
2022-09-20T07:58:37.963Z,95572.38
2022-09-20T08:01:14.972Z,95563.63
2022-09-20T08:03:41.641Z,95563.16
2022-09-20T08:06:11.533Z,95563.41
2022-09-20T08:08:40.270Z,95565.72
2022-09-20T08:11:16.127Z,95572.72
2022-09-20T08:16:42.701Z,95569.16
2022-09-20T08:19:15.973Z,95585.31
2022-09-20T08:21:42.714Z,95578.84
2022-09-20T08:24:09.304Z,95581.25
2022-09-20T08:26:36.026Z,95578.38
2022-09-20T08:29:06.550Z,95573.66
2022-09-20T08:31:36.889Z,95569.94
2022-09-20T08:34:11.403Z,95576.44
2022-09-20T08:36:43.732Z,95583.00
2022-09-20T08:42:24.079Z,95576.31
2022-09-20T08:44:59.248Z,95585.66
2022-09-20T08:47:49.421Z,95578.50
2022-09-20T08:50:18.084Z,95580.03
2022-09-20T08:52:48.693Z,95582.69
2022-09-20T08:55:27.418Z,95581.56
2022-09-20T08:57:59.334Z,95588.53
2022-09-20T09:00:31.259Z,95581.53
2022-09-20T09:03:03.373Z,95584.75
2022-09-20T09:05:36.668Z,95582.34
2022-09-20T09:08:28.742Z,95580.78
2022-09-20T09:11:04.435Z,95592.09
2022-09-20T09:13:59.422Z,95573.91
2022-09-20T09:16:35.286Z,95569.97
2022-09-20T09:19:43.541Z,95571.00
2022-09-20T09:22:11.583Z,95567.66
2022-09-20T09:24:38.371Z,95568.34
2022-09-20T09:27:19.807Z,95567.66
2022-09-20T09:29:52.074Z,95564.13
2022-09-20T09:32:31.107Z,95562.34
2022-09-20T09:35:25.626Z,95565.34
2022-09-20T09:38:01.965Z,95570.09
2022-09-20T09:40:31.327Z,95555.78
2022-09-20T09:43:00.297Z,95558.88
2022-09-20T09:45:35.638Z,95556.78
2022-09-20T09:48:02.851Z,95558.66
2022-09-20T09:50:33.793Z,95553.78
2022-09-20T09:53:15.733Z,95554.28
2022-09-20T09:56:12.027Z,95549.53
2022-09-20T09:58:50.451Z,95550.09
2022-09-20T10:01:43.175Z,95543.94
2022-09-20T10:04:21.682Z,95538.38
2022-09-20T10:06:55.832Z,95552.06
2022-09-20T10:09:52.815Z,95556.13
2022-09-20T10:12:43.177Z,95548.28
2022-09-20T10:15:37.484Z,95544.94
2022-09-20T10:18:10.091Z,95535.72
2022-09-20T10:20:50.001Z,95537.66
2022-09-20T10:24:03.467Z,95541.19
2022-09-20T10:26:42.952Z,95537.59
2022-09-20T10:29:32.964Z,95535.75
2022-09-20T10:32:17.400Z,95539.59
2022-09-20T10:35:21.740Z,95536.72
2022-09-20T10:38:10.299Z,95537.78
2022-09-20T10:41:02.204Z,95530.66
2022-09-20T10:43:53.062Z,95533.97
2022-09-20T10:47:00.291Z,95534.56
2022-09-20T10:49:29.521Z,95529.72
2022-09-20T10:51:59.055Z,95528.31
2022-09-20T10:54:46.291Z,95528.47
2022-09-20T10:57:25.603Z,95535.88
2022-09-20T11:00:10.860Z,95528.63
2022-09-20T11:02:49.595Z,95522.63
2022-09-20T11:05:33.097Z,95529.22
2022-09-20T11:08:09.335Z,95526.44
2022-09-20T11:10:56.545Z,95522.97
2022-09-20T11:13:57.723Z,95518.16
2022-09-20T11:16:42.236Z,95527.78
2022-09-20T11:19:46.792Z,95528.97
2022-09-20T11:22:40.258Z,95530.59
2022-09-20T11:25:19.399Z,95527.28
2022-09-20T11:28:01.464Z,95531.00
2022-09-20T11:30:33.292Z,95518.16
2022-09-20T11:33:27.343Z,95538.78
2022-09-20T11:36:02.058Z,95529.34
2022-09-20T11:38:35.479Z,95515.47
2022-09-20T11:41:08.170Z,95535.00
2022-09-20T11:43:36.739Z,95525.22
2022-09-20T11:46:08.876Z,95523.88
2022-09-20T11:48:53.178Z,95520.53
2022-09-20T11:51:35.408Z,95524.97
2022-09-20T11:54:23.642Z,95522.53
2022-09-20T11:56:53.870Z,95533.09
2022-09-20T11:59:37.652Z,95533.50
2022-09-20T12:02:37.590Z,95525.91
2022-09-20T12:05:23.952Z,95526.00
2022-09-20T12:07:55.647Z,95525.88
2022-09-20T12:10:31.141Z,95526.19
2022-09-20T12:13:05.484Z,95516.28
2022-09-20T12:15:35.838Z,95519.50
2022-09-20T12:18:09.457Z,95513.72
2022-09-20T12:20:36.244Z,95522.44
2022-09-20T12:23:39.982Z,95524.53
2022-09-20T12:26:10.527Z,95518.34
2022-09-20T12:28:38.780Z,95511.81
2022-09-20T12:31:23.424Z,95517.81
2022-09-20T12:34:08.745Z,95514.72
2022-09-20T12:36:53.884Z,95517.88
2022-09-20T12:39:29.932Z,95515.28
2022-09-20T12:42:12.238Z,95510.16
2022-09-20T12:44:58.774Z,95519.69
2022-09-20T12:47:33.351Z,95517.44
2022-09-20T12:50:02.944Z,95503.31
2022-09-20T12:52:35.446Z,95507.75
2022-09-20T12:55:06.533Z,95496.22
2022-09-20T12:57:40.210Z,95488.72
2022-09-20T13:00:08.449Z,95501.97
2022-09-20T13:02:56.494Z,95501.44
2022-09-20T13:05:33.901Z,95492.72
2022-09-20T13:08:09.776Z,95493.75
2022-09-20T13:10:48.214Z,95494.75
2022-09-20T13:13:46.793Z,95489.13
2022-09-20T13:16:20.775Z,95488.94
2022-09-20T13:18:57.782Z,95490.38
2022-09-20T13:21:25.665Z,95495.25
2022-09-20T13:23:54.685Z,95484.13
2022-09-20T13:26:33.302Z,95490.56
2022-09-20T13:29:02.774Z,95479.78
2022-09-20T13:31:32.556Z,95479.38
2022-09-20T13:34:20.091Z,95483.50
2022-09-20T13:36:51.025Z,95487.22
2022-09-20T13:39:34.886Z,95484.16
2022-09-20T13:42:12.825Z,95476.44
2022-09-20T13:44:39.986Z,95477.84
2022-09-20T13:47:30.331Z,95477.84
2022-09-20T13:50:16.322Z,95477.84
2022-09-20T13:52:48.758Z,95483.16
2022-09-20T13:55:32.516Z,95474.25
2022-09-20T13:58:24.835Z,95484.38
2022-09-20T14:00:58.875Z,95479.38
2022-09-20T14:03:28.211Z,95473.84
2022-09-20T14:06:15.386Z,95480.38
2022-09-20T14:08:49.632Z,95478.78
2022-09-20T14:11:23.850Z,95475.03
2022-09-20T14:13:54.728Z,95478.88
2022-09-20T14:16:27.766Z,95471.53
2022-09-20T14:18:56.019Z,95479.09
2022-09-20T14:21:27.170Z,95476.19
2022-09-20T14:23:57.391Z,95471.84
2022-09-20T14:26:31.507Z,95466.78
2022-09-20T14:29:36.383Z,95480.00
2022-09-20T14:32:17.970Z,95470.00
2022-09-20T14:35:01.637Z,95466.91
2022-09-20T14:37:50.754Z,95465.41
2022-09-20T14:40:22.905Z,95465.59
2022-09-20T14:42:54.889Z,95477.88
2022-09-20T14:45:37.272Z,95467.81
2022-09-20T14:48:11.421Z,95458.66
2022-09-20T14:51:06.484Z,95457.88
2022-09-20T14:53:33.114Z,95471.97
2022-09-20T14:56:09.455Z,95475.91
2022-09-20T14:59:24.053Z,95463.38
2022-09-20T15:02:16.086Z,95455.34
2022-09-20T15:04:53.560Z,95455.69
2022-09-20T15:07:20.544Z,95461.81
2022-09-20T15:09:47.230Z,95463.13
2022-09-20T15:12:21.266Z,95461.66
2022-09-20T15:14:48.796Z,95464.97
2022-09-20T15:17:18.834Z,95454.88
2022-09-20T15:19:49.390Z,95458.59
2022-09-20T15:22:16.436Z,95456.47
2022-09-20T15:24:43.084Z,95453.38
2022-09-20T15:27:11.861Z,95460.28
2022-09-20T15:29:38.827Z,95454.56
2022-09-20T15:32:05.459Z,95455.16
2022-09-20T15:34:32.572Z,95449.59
2022-09-20T15:36:59.208Z,95455.59
2022-09-20T15:39:26.323Z,95460.34
2022-09-20T15:41:53.010Z,95452.84
2022-09-20T15:44:20.342Z,95456.25
2022-09-20T15:46:47.011Z,95458.81
2022-09-20T15:49:13.583Z,95459.22
2022-09-20T15:51:40.214Z,95462.44
2022-09-20T15:54:07.089Z,95465.19
2022-09-20T15:56:37.520Z,95468.34
2022-09-20T15:59:07.471Z,95476.22
2022-09-20T16:01:39.652Z,95471.00
2022-09-20T16:04:14.924Z,95481.19
2022-09-20T16:06:43.723Z,95465.81
2022-09-20T16:09:10.791Z,95472.38
2022-09-20T16:11:38.145Z,95468.75
2022-09-20T16:14:05.359Z,95480.06
2022-09-20T16:16:37.579Z,95479.44
2022-09-20T16:19:06.201Z,95488.34
2022-09-20T16:21:32.907Z,95484.19
2022-09-20T16:23:59.985Z,95481.09
2022-09-20T16:26:28.963Z,95483.03
2022-09-20T16:28:55.587Z,95480.88
2022-09-20T16:31:38.452Z,95485.75
2022-09-20T16:34:11.262Z,95474.16
2022-09-20T16:36:38.221Z,95483.94
2022-09-20T16:39:04.803Z,95481.31
2022-09-20T16:41:31.397Z,95479.56
2022-09-20T16:43:58.056Z,95492.09
2022-09-20T16:46:26.492Z,95481.97
2022-09-20T16:48:57.345Z,95491.81
2022-09-20T16:51:28.798Z,95492.06
2022-09-20T16:53:55.717Z,95486.44
2022-09-20T16:56:28.824Z,95498.00
2022-09-20T16:58:56.232Z,95488.56
2022-09-20T17:01:23.405Z,95498.00
2022-09-20T17:03:50.040Z,95487.59
2022-09-20T17:06:18.168Z,95487.28
2022-09-20T17:08:45.260Z,95492.44
2022-09-20T17:11:17.753Z,95501.50
2022-09-20T17:13:45.503Z,95504.34
2022-09-20T17:16:16.928Z,95498.94
2022-09-20T17:18:43.907Z,95499.16
2022-09-20T17:21:14.040Z,95503.75
2022-09-20T17:23:50.623Z,95508.75
2022-09-20T17:26:21.235Z,95510.25
2022-09-20T17:28:49.625Z,95516.50
2022-09-20T17:31:19.620Z,95504.97
2022-09-20T17:33:46.646Z,95518.63
2022-09-20T17:36:16.750Z,95514.09
2022-09-20T17:38:43.342Z,95523.94
2022-09-20T17:41:17.405Z,95518.41
2022-09-20T17:43:46.461Z,95526.38
2022-09-20T17:46:21.474Z,95530.69
2022-09-20T17:48:51.599Z,95541.00
2022-09-20T17:51:19.808Z,95531.41
2022-09-20T17:53:47.125Z,95537.88
2022-09-20T17:56:14.622Z,95540.06
2022-09-20T17:58:42.432Z,95542.47
2022-09-20T18:01:14.827Z,95555.13
2022-09-20T18:03:44.332Z,95553.06
2022-09-20T18:06:29.454Z,95550.19
2022-09-20T18:08:59.717Z,95554.59
2022-09-20T18:11:30.201Z,95555.34
2022-09-20T18:13:56.872Z,95562.63
2022-09-20T18:16:23.652Z,95560.28
2022-09-20T18:18:50.881Z,95553.44
2022-09-20T18:21:20.429Z,95559.19
2022-09-20T18:23:48.749Z,95560.88
2022-09-20T18:26:21.986Z,95562.00
2022-09-20T18:29:10.513Z,95562.47
2022-09-20T18:31:39.958Z,95581.53
2022-09-20T18:34:09.803Z,95564.88
2022-09-20T18:36:38.419Z,95568.38
2022-09-20T18:39:06.192Z,95561.78
2022-09-20T18:41:35.734Z,95572.41
2022-09-20T18:44:05.028Z,95581.09
2022-09-20T18:46:31.667Z,95570.97
2022-09-20T18:49:00.973Z,95577.19
2022-09-20T18:51:28.192Z,95575.22
2022-09-20T18:53:56.554Z,95584.56
2022-09-20T18:56:32.131Z,95583.16
2022-09-20T18:59:01.772Z,95575.53
2022-09-20T19:01:31.569Z,95570.06
2022-09-20T19:04:13.185Z,95568.81
2022-09-20T19:07:03.901Z,95579.91
2022-09-20T19:09:40.286Z,95573.63
2022-09-20T19:12:35.980Z,95584.56
2022-09-20T19:15:08.629Z,95579.34
2022-09-20T19:17:47.815Z,95590.38
2022-09-20T19:20:32.406Z,95586.06
2022-09-20T19:23:31.870Z,95584.94
2022-09-20T19:26:20.842Z,95600.88
2022-09-20T19:28:51.817Z,95583.81
2022-09-20T19:31:33.696Z,95593.00
2022-09-20T19:34:06.846Z,95589.59
2022-09-20T19:36:50.956Z,95592.88
2022-09-20T19:39:41.702Z,95589.59
2022-09-20T19:42:08.262Z,95588.31
2022-09-20T19:44:57.292Z,95579.22
2022-09-20T19:47:32.990Z,95594.09
2022-09-20T19:50:24.319Z,95597.31
2022-09-20T19:52:51.245Z,95588.56
2022-09-20T19:55:19.314Z,95582.47
2022-09-20T19:57:47.218Z,95605.72
2022-09-20T20:00:21.185Z,95595.91
2022-09-20T20:02:51.476Z,95594.53
2022-09-20T20:05:20.677Z,95606.22
2022-09-20T20:08:12.109Z,95594.91
2022-09-20T20:10:57.242Z,95607.94
2022-09-20T20:13:37.026Z,95611.59
2022-09-20T20:16:15.739Z,95605.03
2022-09-20T20:19:04.611Z,95598.16
2022-09-20T20:21:40.828Z,95586.97
2022-09-20T20:24:33.635Z,95593.78
2022-09-20T20:27:03.281Z,95599.44
2022-09-20T20:29:29.851Z,95603.06
2022-09-20T20:31:56.404Z,95608.84
2022-09-20T20:34:23.141Z,95598.94
2022-09-20T20:36:52.432Z,95601.91
2022-09-20T20:39:19.239Z,95605.13
2022-09-20T20:41:45.850Z,95616.31
2022-09-20T20:44:12.480Z,95602.03
2022-09-20T20:46:39.191Z,95618.63
2022-09-20T20:49:05.803Z,95605.63
2022-09-20T20:51:32.424Z,95596.41
2022-09-20T20:53:59.421Z,95605.53
2022-09-20T20:56:28.675Z,95597.22
2022-09-20T20:58:57.195Z,95594.28
2022-09-20T21:01:30.267Z,95601.50
2022-09-20T21:03:58.520Z,95599.06
2022-09-20T21:06:30.059Z,95597.47
2022-09-20T21:08:58.716Z,95600.75
2022-09-20T21:11:30.976Z,95607.13
2022-09-20T21:14:00.451Z,95599.16
2022-09-20T21:16:32.650Z,95598.50
2022-09-20T21:18:59.278Z,95615.81
2022-09-20T21:21:29.171Z,95593.41
2022-09-20T21:23:58.874Z,95596.59
2022-09-20T21:26:27.280Z,95598.22
2022-09-20T21:28:59.025Z,95600.81
2022-09-20T21:31:28.471Z,95591.84
2022-09-20T21:33:55.481Z,95598.75
2022-09-20T21:36:27.806Z,95589.13
2022-09-20T21:38:55.347Z,95586.38
2022-09-20T21:41:27.253Z,95590.66
2022-09-20T21:43:56.033Z,95578.81
2022-09-20T21:46:28.689Z,95584.25
2022-09-20T21:48:57.509Z,95583.69
2022-09-20T21:51:26.148Z,95563.84
2022-09-20T21:53:54.700Z,95581.41
2022-09-20T21:56:21.320Z,95579.84
2022-09-20T21:58:48.058Z,95580.09
2022-09-20T22:01:18.033Z,95574.13
2022-09-20T22:03:47.410Z,95575.31
2022-09-20T22:06:19.376Z,95576.59
2022-09-20T22:08:57.847Z,95568.06
2022-09-20T22:11:28.768Z,95571.25
2022-09-20T22:13:56.747Z,95562.16
2022-09-20T22:16:29.856Z,95563.97
2022-09-20T22:18:57.800Z,95556.94
2022-09-20T22:21:32.869Z,95569.25
2022-09-20T22:24:02.377Z,95564.31
2022-09-20T22:26:33.050Z,95561.09
2022-09-20T22:28:59.847Z,95554.84
2022-09-20T22:31:35.529Z,95561.78
2022-09-20T22:34:05.382Z,95550.88
2022-09-20T22:36:35.523Z,95559.63
2022-09-20T22:39:03.930Z,95560.63
2022-09-20T22:41:30.592Z,95561.03
2022-09-20T22:43:57.207Z,95557.13
2022-09-20T22:46:27.032Z,95567.72
2022-09-20T22:48:54.057Z,95569.47
2022-09-20T22:51:22.198Z,95564.94
2022-09-20T22:53:49.552Z,95575.19
2022-09-20T22:56:18.838Z,95555.00
2022-09-20T22:58:49.214Z,95558.91
2022-09-20T23:01:25.551Z,95545.38
2022-09-20T23:03:57.839Z,95550.66
2022-09-20T23:06:30.576Z,95550.09
2022-09-20T23:09:00.174Z,95566.38
2022-09-20T23:11:29.342Z,95548.69
2022-09-20T23:13:59.922Z,95551.13
2022-09-20T23:16:30.786Z,95557.88
2022-09-20T23:18:59.495Z,95553.44
2022-09-20T23:21:26.561Z,95556.47
2022-09-20T23:24:01.808Z,95556.50
2022-09-20T23:26:31.776Z,95559.94
2022-09-20T23:29:04.332Z,95565.47
2022-09-20T23:31:33.250Z,95557.56
2022-09-20T23:34:02.502Z,95560.81
2022-09-20T23:36:31.841Z,95546.56
2022-09-20T23:38:58.507Z,95555.94
2022-09-20T23:41:27.514Z,95552.88
2022-09-20T23:43:54.974Z,95559.19
2022-09-20T23:46:25.072Z,95563.25
2022-09-20T23:48:52.193Z,95553.91
2022-09-20T23:51:22.791Z,95551.03
2022-09-20T23:53:50.964Z,95547.63
2022-09-20T23:56:18.223Z,95561.47
2022-09-20T23:58:45.920Z,95581.16
